TimeCST,TemperatureF,Dew PointF,Humidity,Sea Level PressureIn,VisibilityMPH,Wind Direction,Wind SpeedMPH,Gust SpeedMPH,PrecipitationIn,Events,Conditions,WindDirDegrees,DateUTC
12:13 AM,26.6,24.8,93,29.50,1.5,South,10.4,-,N/A,Snow,Light Snow,170,2013-02-18 06:13:00
12:33 AM,26.6,26.6,100,29.50,0.8,South,10.4,-,N/A,Snow,Snow,170,2013-02-18 06:33:00
12:53 AM,26.6,26.6,100,29.50,1.5,South,9.2,-,N/A,Snow,Light Snow,170,2013-02-18 06:53:00
1:13 AM,26.6,26.6,100,29.49,0.5,SSE,9.2,-,N/A,Snow,Snow,160,2013-02-18 07:13:00
1:34 AM,26.6,24.8,93,29.49,0.5,SSE,9.2,-,N/A,Snow,Heavy Snow,160,2013-02-18 07:34:00
1:53 AM,26.6,24.8,93,29.49,1.0,SSE,6.9,-,N/A,Snow,Snow,160,2013-02-18 07:53:00
2:13 AM,26.6,24.8,93,29.49,0.8,SSE,4.6,-,N/A,Snow,Snow,160,2013-02-18 08:13:00
2:33 AM,26.6,24.8,93,29.49,1.0,SSE,4.6,-,N/A,Snow,Light Snow,160,2013-02-18 08:33:00
2:53 AM,26.6,24.8,93,29.49,2.5,SSE,4.6,-,N/A,Snow,Light Snow,150,2013-02-18 08:53:00
3:13 AM,26.6,24.8,93,29.48,2.5,Calm,Calm,-,N/A,Snow,Light Snow,0,2013-02-18 09:13:00
3:33 AM,26.6,26.6,100,29.48,3.0,Calm,Calm,-,N/A,Snow,Light Snow,0,2013-02-18 09:33:00
3:53 AM,26.6,24.8,93,29.49,4.0,Calm,Calm,-,N/A,,Overcast,0,2013-02-18 09:53:00
4:13 AM,26.6,24.8,93,29.49,4.0,NNE,9.2,-,N/A,,Overcast,30,2013-02-18 10:13:00
4:33 AM,24.8,23.0,93,29.50,7.0,North,17.3,-,N/A,,Overcast,10,2013-02-18 10:33:00
4:53 AM,23.0,21.2,93,29.50,10.0,North,17.3,-,N/A,Snow,Light Snow,10,2013-02-18 10:53:00
5:13 AM,23.0,19.4,86,29.51,3.0,North,17.3,-,N/A,Snow,Light Snow,360,2013-02-18 11:13:00
5:33 AM,21.2,19.4,93,29.52,1.8,North,18.4,24.2,N/A,Snow,Light Snow,10,2013-02-18 11:33:00
5:53 AM,21.2,19.4,93,29.53,1.2,North,21.9,-,N/A,Snow,Light Snow,10,2013-02-18 11:53:00
6:13 AM,21.2,17.6,86,29.53,1.5,North,23.0,-,N/A,Snow,Light Snow,360,2013-02-18 12:13:00
6:33 AM,19.4,17.6,93,29.54,1.2,North,21.9,-,N/A,Snow,Light Snow,360,2013-02-18 12:33:00
6:53 AM,19.4,17.6,93,29.55,1.2,North,19.6,26.5,N/A,Snow,Light Snow,10,2013-02-18 12:53:00
7:14 AM,19.4,17.6,93,29.57,0.8,North,18.4,26.5,N/A,Snow,Snow,360,2013-02-18 13:14:00
7:33 AM,19.4,15.8,86,29.57,0.5,North,20.7,24.2,N/A,Snow,Snow,350,2013-02-18 13:33:00
8:13 AM,15.8,12.2,86,29.60,0.5,North,23.0,32.2,N/A,Snow,Light Snow,360,2013-02-18 14:13:00
8:33 AM,14.0,10.4,86,29.61,0.5,North,25.3,33.4,N/A,Snow,Light Snow,350,2013-02-18 14:33:00
8:53 AM,12.2,10.4,92,29.63,0.5,North,23.0,28.8,N/A,Snow,Light Snow,350,2013-02-18 14:53:00
9:13 AM,12.2,8.6,85,29.64,0.8,North,20.7,33.4,N/A,Snow,Light Snow,350,2013-02-18 15:13:00
9:33 AM,10.4,6.8,85,29.65,0.8,North,27.6,34.5,N/A,Snow,Light Snow,350,2013-02-18 15:33:00
9:54 AM,10.4,6.8,85,29.66,0.8,North,25.3,32.2,N/A,Snow,Light Snow,350,2013-02-18 15:54:00
10:13 AM,8.6,5.0,85,29.67,0.8,North,23.0,33.4,N/A,Snow,Light Snow,350,2013-02-18 16:13:00
10:33 AM,8.6,3.2,79,29.68,0.8,North,26.5,34.5,N/A,Snow,Light Snow,350,2013-02-18 16:33:00
10:54 AM,8.6,3.2,79,29.69,0.8,North,23.0,34.5,N/A,Snow,Light Snow,360,2013-02-18 16:54:00
11:13 AM,8.6,3.2,79,29.70,0.8,North,29.9,35.7,N/A,Snow,Light Snow,350,2013-02-18 17:13:00
11:33 AM,8.6,3.2,79,29.71,0.8,North,27.6,32.2,N/A,Snow,Light Snow,350,2013-02-18 17:33:00
11:54 AM,6.8,3.2,85,29.72,0.8,North,25.3,33.4,N/A,Snow,Light Snow,350,2013-02-18 17:54:00
12:13 PM,8.6,3.2,79,29.72,1.0,North,25.3,28.8,N/A,Snow,Light Snow,350,2013-02-18 18:13:00
12:33 PM,6.8,1.4,79,29.73,0.8,North,25.3,32.2,N/A,Snow,Light Snow,350,2013-02-18 18:33:00
12:54 PM,6.8,3.2,85,29.74,1.0,North,20.7,26.5,N/A,Snow,Light Snow,350,2013-02-18 18:54:00
1:13 PM,6.8,3.2,85,29.75,1.2,North,21.9,31.1,N/A,Snow,Light Snow,350,2013-02-18 19:13:00
1:33 PM,6.8,1.4,79,29.76,1.2,North,23.0,31.1,N/A,Snow,Light Snow,350,2013-02-18 19:33:00
1:54 PM,6.8,1.4,79,29.77,1.8,NNW,26.5,31.1,N/A,Snow,Light Snow,340,2013-02-18 19:54:00
2:13 PM,6.8,1.4,79,29.78,2.5,NNW,23.0,26.5,N/A,,Haze,340,2013-02-18 20:13:00
2:34 PM,6.8,1.4,79,29.79,2.0,NNW,23.0,26.5,N/A,,Haze,340,2013-02-18 20:34:00
2:53 PM,6.8,1.4,79,29.80,2.0,NNW,25.3,-,N/A,,Haze,340,2013-02-18 20:53:00
3:14 PM,6.8,1.4,79,29.81,2.5,North,23.0,27.6,N/A,,Haze,350,2013-02-18 21:14:00
3:33 PM,6.8,-0.4,72,29.82,2.0,NNW,23.0,-,N/A,,Haze,340,2013-02-18 21:33:00
3:53 PM,6.8,-0.4,72,29.83,2.5,North,24.2,29.9,N/A,,Haze,350,2013-02-18 21:53:00
4:13 PM,5.0,-0.4,78,29.84,2.5,North,25.3,34.5,N/A,,Haze,350,2013-02-18 22:13:00
4:33 PM,6.8,-0.4,72,29.85,3.0,North,19.6,-,N/A,,Haze,350,2013-02-18 22:33:00
4:54 PM,5.0,-0.4,78,29.86,3.0,North,24.2,31.1,N/A,,Haze,350,2013-02-18 22:54:00
5:13 PM,5.0,-0.4,78,29.88,3.0,North,27.6,34.5,N/A,,Haze,350,2013-02-18 23:13:00
5:33 PM,3.2,-0.4,85,29.89,2.5,North,18.4,-,N/A,,Haze,350,2013-02-18 23:33:00
5:54 PM,3.2,-2.2,78,29.91,2.5,North,25.3,32.2,N/A,,Haze,350,2013-02-18 23:54:00
6:13 PM,3.2,-2.2,78,29.92,4.0,North,26.5,29.9,N/A,,Haze,350,2013-02-19 00:13:00
6:33 PM,3.2,-2.2,78,29.92,7.0,North,20.7,28.8,N/A,,Overcast,350,2013-02-19 00:33:00
6:53 PM,3.2,-2.2,78,29.93,5.0,North,24.2,29.9,N/A,,Haze,350,2013-02-19 00:53:00
7:13 PM,3.2,-2.2,78,29.94,7.0,NNW,27.6,32.2,N/A,,Overcast,340,2013-02-19 01:13:00
7:34 PM,3.2,-2.2,78,29.95,10.0,North,20.7,29.9,N/A,,Overcast,350,2013-02-19 01:34:00
7:53 PM,1.4,-4.0,78,29.95,5.0,North,20.7,31.1,N/A,,Haze,350,2013-02-19 01:53:00
8:13 PM,1.4,-4.0,78,29.96,10.0,North,21.9,26.5,N/A,,Overcast,350,2013-02-19 02:13:00
8:33 PM,1.4,-4.0,78,29.96,10.0,North,18.4,26.5,N/A,,Overcast,360,2013-02-19 02:33:00
8:54 PM,1.4,-4.0,78,29.97,10.0,North,18.4,27.6,N/A,,Overcast,350,2013-02-19 02:54:00
9:13 PM,1.4,-5.8,72,29.98,4.0,North,21.9,34.5,N/A,,Haze,360,2013-02-19 03:13:00
9:54 PM,1.4,-5.8,72,29.98,5.0,North,20.7,26.5,N/A,,Haze,350,2013-02-19 03:54:00
10:13 PM,-0.4,-5.8,78,29.99,5.0,North,21.9,32.2,N/A,,Haze,350,2013-02-19 04:13:00
10:33 PM,-0.4,-7.6,72,29.99,4.0,North,24.2,33.4,N/A,,Haze,360,2013-02-19 04:33:00
10:54 PM,-0.4,-7.6,72,30.00,4.0,North,23.0,28.8,N/A,,Haze,350,2013-02-19 04:54:00
11:13 PM,-0.4,-7.6,72,30.01,7.0,North,19.6,24.2,N/A,,Overcast,350,2013-02-19 05:13:00
11:33 PM,-0.4,-7.6,72,30.02,7.0,North,23.0,28.8,N/A,,Overcast,350,2013-02-19 05:33:00
11:54 PM,-0.4,-7.6,72,30.04,7.0,North,23.0,-,N/A,,Overcast,350,2013-02-19 05:54:00